createdAt,value
2022-10-19T00:00:15.484Z,14.01
2022-10-19T00:02:43.160Z,14.07
2022-10-19T00:05:11.003Z,14.19
2022-10-19T00:07:40.127Z,14.13
2022-10-19T00:10:08.110Z,14.17
2022-10-19T00:12:35.715Z,14.10
2022-10-19T00:15:03.499Z,14.14
2022-10-19T00:17:31.578Z,14.13
2022-10-19T00:19:59.635Z,13.96
2022-10-19T00:22:27.228Z,13.89
2022-10-19T00:24:57.433Z,13.86
2022-10-19T00:27:25.083Z,13.82
2022-10-19T00:29:53.742Z,13.70
2022-10-19T00:32:21.316Z,13.72
2022-10-19T00:34:49.082Z,13.64
2022-10-19T00:37:16.816Z,13.59
2022-10-19T00:39:44.480Z,13.54
2022-10-19T00:42:13.834Z,13.44
2022-10-19T00:45:13.557Z,13.46
2022-10-19T00:47:41.956Z,13.50
2022-10-19T00:50:11.869Z,13.51
2022-10-19T00:52:39.604Z,13.48
2022-10-19T00:55:09.099Z,13.44
2022-10-19T00:57:38.289Z,13.49
2022-10-19T01:00:08.004Z,13.55
2022-10-19T01:02:36.166Z,13.52
2022-10-19T01:05:05.117Z,13.37
2022-10-19T01:07:33.474Z,13.29
2022-10-19T01:10:02.141Z,13.17
2022-10-19T01:12:51.542Z,13.18
2022-10-19T01:15:29.464Z,13.19
2022-10-19T01:18:05.854Z,13.17
2022-10-19T01:21:13.157Z,13.10
2022-10-19T01:24:18.949Z,13.06
2022-10-19T01:27:16.348Z,13.01
2022-10-19T01:30:08.692Z,13.04
2022-10-19T01:32:47.615Z,13.03
2022-10-19T01:35:25.910Z,13.02
2022-10-19T01:38:03.104Z,12.97
2022-10-19T01:40:37.416Z,13.06
2022-10-19T01:43:11.122Z,13.03
2022-10-19T01:45:46.135Z,12.92
2022-10-19T01:48:17.669Z,12.87
2022-10-19T01:50:51.608Z,12.94
2022-10-19T01:53:21.475Z,12.94
2022-10-19T01:55:52.141Z,12.93
2022-10-19T01:58:25.478Z,12.99
2022-10-19T02:00:57.135Z,12.99
2022-10-19T02:03:26.743Z,12.87
2022-10-19T02:05:55.094Z,12.84
2022-10-19T02:08:28.486Z,12.95
2022-10-19T02:10:59.891Z,12.90
2022-10-19T02:13:29.632Z,12.84
2022-10-19T02:16:02.339Z,12.74
2022-10-19T02:18:34.038Z,12.78
2022-10-19T02:21:02.442Z,12.63
2022-10-19T02:23:30.175Z,12.65
2022-10-19T02:25:58.578Z,12.69
2022-10-19T02:28:27.241Z,12.74
2022-10-19T02:30:54.954Z,12.75
2022-10-19T02:33:24.405Z,12.78
2022-10-19T02:35:52.222Z,12.82
2022-10-19T02:38:22.568Z,12.92
2022-10-19T02:40:57.085Z,12.96
2022-10-19T02:43:27.786Z,12.91
2022-10-19T02:46:01.368Z,12.94
2022-10-19T02:48:32.900Z,12.90
2022-10-19T02:51:00.507Z,12.91
2022-10-19T02:53:28.085Z,12.94
2022-10-19T02:55:55.717Z,12.96
2022-10-19T02:58:23.307Z,12.96
2022-10-19T03:00:50.898Z,13.04
2022-10-19T03:03:18.555Z,12.94
2022-10-19T03:05:47.484Z,13.03
2022-10-19T03:08:15.002Z,12.96
2022-10-19T03:10:42.519Z,12.93
2022-10-19T03:13:10.085Z,12.75
2022-10-19T03:15:37.781Z,12.77
2022-10-19T03:18:05.416Z,12.69
2022-10-19T03:20:33.003Z,12.70
2022-10-19T03:23:01.893Z,12.55
2022-10-19T03:25:29.421Z,12.54
2022-10-19T03:27:57.045Z,12.48
2022-10-19T03:30:24.678Z,12.37
2022-10-19T03:32:52.201Z,12.38
2022-10-19T03:35:19.884Z,12.34
2022-10-19T03:37:47.491Z,12.29
2022-10-19T03:40:16.593Z,12.15
2022-10-19T03:42:44.152Z,12.24
2022-10-19T03:45:12.045Z,12.15
2022-10-19T03:47:39.561Z,12.08
2022-10-19T03:50:11.037Z,12.02
2022-10-19T03:52:38.641Z,12.02
2022-10-19T03:55:07.130Z,12.00
2022-10-19T03:57:36.374Z,11.96
2022-10-19T04:00:04.756Z,11.90
2022-10-19T04:02:32.297Z,11.95
2022-10-19T04:04:59.825Z,11.91
2022-10-19T04:07:27.515Z,11.88
2022-10-19T04:09:55.103Z,11.91
2022-10-19T04:12:22.649Z,11.85
2022-10-19T04:14:57.245Z,11.88
2022-10-19T04:17:26.275Z,11.90
2022-10-19T04:19:53.848Z,11.93
2022-10-19T04:22:21.431Z,11.94
2022-10-19T04:24:48.998Z,12.02
2022-10-19T04:27:16.601Z,12.01
2022-10-19T04:29:44.171Z,12.05
2022-10-19T04:32:13.061Z,12.14
2022-10-19T04:34:40.669Z,12.15
2022-10-19T04:37:08.216Z,12.09
2022-10-19T04:39:39.319Z,12.06
2022-10-19T04:42:07.008Z,12.01
2022-10-19T04:44:34.569Z,11.95
2022-10-19T04:47:02.148Z,11.98
2022-10-19T04:49:31.068Z,11.96
2022-10-19T04:51:58.584Z,11.95
2022-10-19T04:54:26.388Z,11.86
2022-10-19T04:56:54.365Z,11.73
2022-10-19T04:59:21.993Z,11.69
2022-10-19T05:01:49.555Z,11.72
2022-10-19T05:04:17.196Z,11.52
2022-10-19T05:06:46.106Z,11.43
2022-10-19T05:09:13.745Z,11.38
2022-10-19T05:11:41.382Z,11.44
2022-10-19T05:14:09.023Z,11.31
2022-10-19T05:16:36.579Z,11.32
2022-10-19T05:19:04.218Z,11.29
2022-10-19T05:21:31.937Z,11.34
2022-10-19T05:24:00.852Z,11.17
2022-10-19T05:26:30.164Z,11.17
2022-10-19T05:29:01.467Z,11.20
2022-10-19T05:31:31.281Z,11.23
2022-10-19T05:33:59.956Z,11.21
2022-10-19T05:36:29.322Z,11.18
2022-10-19T05:38:58.323Z,11.29
2022-10-19T05:41:27.806Z,11.35
2022-10-19T05:43:56.799Z,11.29
2022-10-19T05:46:25.013Z,11.27
2022-10-19T05:48:52.810Z,11.15
2022-10-19T05:51:21.923Z,11.32
2022-10-19T05:53:50.156Z,11.41
2022-10-19T05:56:19.361Z,11.30
2022-10-19T05:58:49.087Z,11.41
2022-10-19T06:01:18.886Z,11.35
2022-10-19T06:03:46.674Z,11.39
2022-10-19T06:06:14.216Z,11.32
2022-10-19T06:08:41.804Z,11.41
2022-10-19T06:11:11.828Z,11.48
2022-10-19T06:13:41.215Z,11.43
2022-10-19T06:16:11.707Z,11.51
2022-10-19T06:18:40.202Z,11.46
2022-10-19T06:21:09.352Z,11.42
2022-10-19T06:23:37.882Z,11.35
2022-10-19T06:26:08.327Z,11.43
2022-10-19T06:28:37.131Z,11.46
2022-10-19T06:31:08.446Z,11.49
2022-10-19T06:33:40.704Z,11.47
2022-10-19T06:36:09.036Z,11.35
2022-10-19T06:38:36.607Z,11.41
2022-10-19T06:41:04.912Z,11.50
2022-10-19T06:43:32.735Z,11.92
2022-10-19T06:46:00.471Z,12.70
2022-10-19T06:48:27.991Z,13.11
2022-10-19T06:51:00.807Z,13.74
2022-10-19T06:53:29.161Z,14.38
2022-10-19T06:55:59.093Z,14.34
2022-10-19T06:58:27.169Z,15.00
2022-10-19T07:00:58.133Z,14.89
2022-10-19T07:03:25.989Z,15.10
2022-10-19T07:05:54.744Z,15.38
2022-10-19T07:08:24.263Z,15.43
2022-10-19T07:10:52.566Z,15.04
2022-10-19T07:13:20.350Z,15.23
2022-10-19T07:15:48.145Z,15.87
2022-10-19T07:18:15.951Z,15.99
2022-10-19T07:20:43.637Z,16.06
2022-10-19T07:23:11.198Z,16.09
2022-10-19T07:25:40.062Z,16.07
2022-10-19T07:28:07.705Z,15.97
2022-10-19T07:30:38.577Z,15.64
2022-10-19T07:33:06.674Z,15.31
2022-10-19T07:35:34.316Z,15.25
2022-10-19T07:38:02.078Z,14.55
2022-10-19T07:40:29.698Z,14.53
2022-10-19T07:42:58.709Z,14.23
2022-10-19T07:45:26.288Z,13.73
2022-10-19T07:47:53.827Z,13.09
2022-10-19T07:50:23.023Z,12.72
2022-10-19T07:52:52.496Z,12.37
2022-10-19T07:55:20.344Z,12.10
2022-10-19T07:57:49.101Z,11.94
2022-10-19T08:00:18.527Z,12.01
2022-10-19T08:03:00.074Z,11.83
2022-10-19T08:05:33.892Z,11.92
2022-10-19T08:08:01.530Z,12.13
2022-10-19T08:10:29.263Z,12.25
2022-10-19T08:12:56.890Z,12.40
2022-10-19T08:15:26.372Z,12.49
2022-10-19T08:17:53.922Z,12.63
2022-10-19T08:20:21.675Z,12.61
2022-10-19T08:22:49.327Z,12.67
2022-10-19T08:25:17.062Z,12.92
2022-10-19T08:27:44.624Z,12.92
2022-10-19T08:30:14.400Z,13.62
2022-10-19T08:32:43.381Z,13.78
2022-10-19T08:35:11.250Z,13.87
2022-10-19T08:37:44.713Z,13.92
2022-10-19T08:40:19.672Z,14.05
2022-10-19T08:42:53.557Z,13.86
2022-10-19T08:45:43.049Z,13.90
2022-10-19T08:48:33.907Z,13.52
2022-10-19T08:51:02.731Z,13.50
2022-10-19T08:53:41.190Z,13.54
2022-10-19T08:56:38.851Z,13.53
2022-10-19T08:59:19.047Z,13.38
2022-10-19T09:01:51.066Z,13.54
2022-10-19T09:04:24.784Z,13.62
2022-10-19T09:07:20.597Z,13.71
2022-10-19T09:09:52.358Z,13.69
2022-10-19T09:12:32.199Z,13.62
2022-10-19T09:15:03.469Z,13.59
2022-10-19T09:17:32.087Z,13.55
2022-10-19T09:20:14.354Z,13.31
2022-10-19T09:22:43.367Z,12.92
2022-10-19T09:25:16.274Z,13.02
2022-10-19T09:27:47.484Z,13.12
2022-10-19T09:30:19.467Z,13.40
2022-10-19T09:32:48.528Z,13.48
2022-10-19T09:35:26.687Z,13.25
2022-10-19T09:37:55.024Z,13.26
2022-10-19T09:40:25.198Z,13.36
2022-10-19T09:42:57.110Z,13.59
2022-10-19T09:45:34.404Z,13.79
2022-10-19T09:48:08.601Z,13.85
2022-10-19T09:50:44.251Z,13.74
2022-10-19T09:53:19.918Z,14.02
2022-10-19T09:55:52.360Z,13.95
2022-10-19T09:58:21.584Z,14.00
2022-10-19T10:00:51.608Z,14.04
2022-10-19T10:03:29.019Z,14.73
2022-10-19T10:05:59.656Z,14.83
2022-10-19T10:08:31.023Z,14.91
2022-10-19T10:11:07.884Z,13.91
2022-10-19T10:13:39.498Z,13.85
2022-10-19T10:16:10.281Z,14.18
2022-10-19T10:18:46.907Z,14.44
2022-10-19T10:21:25.550Z,14.71
2022-10-19T10:24:02.503Z,14.89
2022-10-19T10:26:30.509Z,14.82
2022-10-19T10:29:01.315Z,14.59
2022-10-19T10:31:31.090Z,14.90
2022-10-19T10:34:12.167Z,15.25
2022-10-19T10:36:54.473Z,15.53
2022-10-19T10:39:24.657Z,15.54
2022-10-19T10:41:52.419Z,15.52
2022-10-19T10:44:23.124Z,15.54
2022-10-19T10:46:57.910Z,15.58
2022-10-19T10:49:28.990Z,15.47
2022-10-19T10:52:01.199Z,15.82
2022-10-19T10:54:31.158Z,15.73
2022-10-19T10:57:06.942Z,15.70
2022-10-19T10:59:41.760Z,15.91
2022-10-19T11:05:00.628Z,16.05
2022-10-19T11:07:33.898Z,16.09
2022-10-19T11:10:09.935Z,16.34
2022-10-19T11:12:40.917Z,16.37
2022-10-19T11:15:18.213Z,16.51
2022-10-19T11:18:13.311Z,16.25
2022-10-19T11:20:48.299Z,16.09
2022-10-19T11:23:36.360Z,15.94
2022-10-19T11:26:14.516Z,16.13
2022-10-19T11:28:55.203Z,16.04
2022-10-19T11:31:31.244Z,15.95
2022-10-19T11:34:08.794Z,15.89
2022-10-19T11:36:47.223Z,16.00
2022-10-19T11:39:32.763Z,15.90
2022-10-19T11:42:09.734Z,16.03
2022-10-19T11:44:49.719Z,16.18
2022-10-19T11:47:29.871Z,16.06
2022-10-19T11:52:53.682Z,16.13
2022-10-19T11:55:31.961Z,16.23
2022-10-19T11:58:11.430Z,16.54
2022-10-19T12:00:46.057Z,16.30
2022-10-19T12:03:38.485Z,16.38
2022-10-19T12:06:12.935Z,16.07
2022-10-19T12:09:02.760Z,15.98
2022-10-19T12:11:46.702Z,16.01
2022-10-19T12:14:18.534Z,16.07
2022-10-19T12:16:50.603Z,15.89
2022-10-19T12:19:22.258Z,16.27
2022-10-19T12:21:51.815Z,16.05
2022-10-19T12:24:22.608Z,15.96
2022-10-19T12:26:52.740Z,16.18
2022-10-19T12:29:23.863Z,16.37
2022-10-19T12:31:53.390Z,16.38
2022-10-19T12:34:31.610Z,16.04
2022-10-19T12:37:05.361Z,16.31
2022-10-19T12:39:40.263Z,16.56
2022-10-19T12:42:19.150Z,16.52
2022-10-19T12:45:02.870Z,16.64
2022-10-19T12:47:30.489Z,16.58
2022-10-19T12:49:59.751Z,16.55
2022-10-19T12:52:40.514Z,16.68
2022-10-19T12:55:25.815Z,16.60
2022-10-19T12:58:06.924Z,16.65
2022-10-19T13:00:36.595Z,16.69
2022-10-19T13:03:08.421Z,16.78
2022-10-19T13:05:36.838Z,16.65
2022-10-19T13:08:09.378Z,16.48
2022-10-19T13:10:39.859Z,16.59
2022-10-19T13:13:51.020Z,16.52
2022-10-19T13:17:06.795Z,16.85
2022-10-19T13:19:34.799Z,16.45
2022-10-19T13:22:27.826Z,16.47
2022-10-19T13:25:23.410Z,16.53
2022-10-19T13:27:52.640Z,16.22
2022-10-19T13:31:03.342Z,16.13
2022-10-19T13:33:50.828Z,16.35
2022-10-19T13:36:19.752Z,16.51
2022-10-19T13:39:02.657Z,16.73
2022-10-19T13:41:47.729Z,16.29
2022-10-19T13:44:21.474Z,16.01
2022-10-19T13:46:55.365Z,16.38
2022-10-19T13:49:37.870Z,16.42
2022-10-19T13:52:20.556Z,16.37
2022-10-19T13:55:11.593Z,16.22
2022-10-19T13:57:59.226Z,16.24
2022-10-19T14:00:33.032Z,16.38
2022-10-19T14:03:19.166Z,16.34
2022-10-19T14:06:03.749Z,16.40
2022-10-19T14:09:13.710Z,16.60
2022-10-19T14:11:43.716Z,16.13
2022-10-19T14:14:16.512Z,16.12
2022-10-19T14:16:50.191Z,16.39
2022-10-19T14:19:26.838Z,16.39
2022-10-19T14:21:57.643Z,16.32
2022-10-19T14:24:31.313Z,16.11
2022-10-19T14:27:01.236Z,16.20
2022-10-19T14:29:29.023Z,15.96
2022-10-19T14:31:59.173Z,15.82
2022-10-19T14:34:26.938Z,15.66
2022-10-19T14:36:56.112Z,15.28
2022-10-19T14:39:27.475Z,15.29
2022-10-19T14:41:57.174Z,15.14
2022-10-19T14:44:44.872Z,15.31
2022-10-19T14:47:21.609Z,15.38
2022-10-19T14:49:50.103Z,15.61
2022-10-19T14:55:07.299Z,15.47
2022-10-19T14:57:38.086Z,15.67
2022-10-19T15:00:10.114Z,15.62
2022-10-19T15:02:40.989Z,15.39
2022-10-19T15:05:20.463Z,15.15
2022-10-19T15:07:50.086Z,14.94
2022-10-19T15:10:22.033Z,14.96
2022-10-19T15:12:51.276Z,14.94
2022-10-19T15:15:21.652Z,14.75
2022-10-19T15:17:53.836Z,14.52
2022-10-19T15:20:28.126Z,14.67
2022-10-19T15:22:57.838Z,14.60
2022-10-19T15:25:33.828Z,14.34
2022-10-19T15:28:22.041Z,14.44
2022-10-19T15:31:00.052Z,14.49
2022-10-19T15:33:28.178Z,14.37
2022-10-19T15:36:06.681Z,14.27
2022-10-19T15:38:37.848Z,14.23
2022-10-19T15:41:06.105Z,14.31
2022-10-19T15:43:38.627Z,14.25
2022-10-19T15:46:07.649Z,14.26
2022-10-19T15:48:51.149Z,14.22
2022-10-19T15:51:44.620Z,14.29
2022-10-19T15:54:17.016Z,14.23
2022-10-19T15:56:46.013Z,14.31
2022-10-19T15:59:17.014Z,14.15
2022-10-19T16:01:45.769Z,14.15
2022-10-19T16:04:13.358Z,14.14
2022-10-19T16:06:42.891Z,14.05
2022-10-19T16:09:18.574Z,14.05
2022-10-19T16:11:46.178Z,13.93
2022-10-19T16:14:13.809Z,13.91
2022-10-19T16:16:41.932Z,13.79
2022-10-19T16:19:10.690Z,13.72
2022-10-19T16:21:38.356Z,13.72
2022-10-19T16:24:06.547Z,13.67
2022-10-19T16:26:35.758Z,13.70
2022-10-19T16:29:03.475Z,13.70
2022-10-19T16:31:31.546Z,13.74
2022-10-19T16:33:59.090Z,13.67
2022-10-19T16:36:26.885Z,13.54
2022-10-19T16:38:54.454Z,13.49
2022-10-19T16:41:22.345Z,13.47
2022-10-19T16:43:56.149Z,13.42
2022-10-19T16:46:24.769Z,13.38
2022-10-19T16:48:52.595Z,13.48
2022-10-19T16:51:36.999Z,13.41
2022-10-19T16:54:07.860Z,13.38
2022-10-19T16:56:36.679Z,13.35
2022-10-19T16:59:07.121Z,13.32
2022-10-19T17:01:35.909Z,13.30
2022-10-19T17:04:03.629Z,13.18
2022-10-19T17:06:31.227Z,13.18
2022-10-19T17:09:36.738Z,13.08
2022-10-19T17:11:47.492Z,13.05
2022-10-19T17:14:16.411Z,13.00
2022-10-19T17:16:44.106Z,13.03
2022-10-19T17:19:12.279Z,12.91
2022-10-19T17:21:42.066Z,12.92
2022-10-19T17:24:20.079Z,12.83
2022-10-19T17:26:49.236Z,12.74
2022-10-19T17:29:18.222Z,12.78
2022-10-19T17:31:46.119Z,12.65
2022-10-19T17:34:13.704Z,12.62
2022-10-19T17:36:44.418Z,12.52
2022-10-19T17:39:15.107Z,12.56
2022-10-19T17:41:42.669Z,12.47
2022-10-19T17:44:10.398Z,12.44
2022-10-19T17:46:39.897Z,12.41
2022-10-19T17:49:07.669Z,12.43
2022-10-19T17:51:37.399Z,12.42
2022-10-19T17:54:08.309Z,12.50
2022-10-19T17:56:37.744Z,12.56
2022-10-19T17:59:07.990Z,12.52
2022-10-19T18:01:35.945Z,12.36
2022-10-19T18:04:05.983Z,12.35
2022-10-19T18:06:37.381Z,12.28
2022-10-19T18:09:07.517Z,12.32
2022-10-19T18:11:38.539Z,12.19
2022-10-19T18:14:08.810Z,12.22
2022-10-19T18:16:38.778Z,12.12
2022-10-19T18:19:08.846Z,12.08
2022-10-19T18:21:39.450Z,12.04
2022-10-19T18:24:11.300Z,12.11
2022-10-19T18:26:42.211Z,12.18
2022-10-19T18:29:12.580Z,12.18
2022-10-19T18:31:41.270Z,12.25
2022-10-19T18:34:15.749Z,12.29
2022-10-19T18:36:43.668Z,12.25
2022-10-19T18:39:12.116Z,12.20
2022-10-19T18:41:40.487Z,12.18
2022-10-19T18:44:09.394Z,12.12
2022-10-19T18:46:38.329Z,12.20
2022-10-19T18:49:08.394Z,12.18
2022-10-19T18:51:37.481Z,12.11
2022-10-19T18:54:05.637Z,12.10
2022-10-19T18:56:36.332Z,12.04
2022-10-19T18:59:04.365Z,11.93
2022-10-19T19:01:31.927Z,11.86
2022-10-19T19:04:06.461Z,11.81
2022-10-19T19:06:36.066Z,11.73
2022-10-19T19:09:09.082Z,11.78
2022-10-19T19:11:38.510Z,11.78
2022-10-19T19:14:08.126Z,11.87
2022-10-19T19:16:38.280Z,11.83
2022-10-19T19:19:06.888Z,11.76
2022-10-19T19:21:35.507Z,11.67
2022-10-19T19:24:07.597Z,11.64
2022-10-19T19:26:38.895Z,11.74
2022-10-19T19:29:06.497Z,11.65
2022-10-19T19:31:34.721Z,11.69
2022-10-19T19:34:03.063Z,11.61
2022-10-19T19:36:30.688Z,11.62
2022-10-19T19:38:59.079Z,11.59
2022-10-19T19:41:28.884Z,11.53
2022-10-19T19:43:57.458Z,11.45
2022-10-19T19:46:25.041Z,11.48
2022-10-19T19:48:58.568Z,11.47
2022-10-19T19:51:26.574Z,11.55
2022-10-19T19:53:54.301Z,11.54
2022-10-19T19:56:21.808Z,11.55
2022-10-19T19:58:55.519Z,11.48
2022-10-19T20:01:23.685Z,11.44
2022-10-19T20:03:51.790Z,11.37
2022-10-19T20:06:23.658Z,11.37
2022-10-19T20:08:53.699Z,11.34
2022-10-19T20:11:21.908Z,11.40
2022-10-19T20:13:51.751Z,11.43
2022-10-19T20:16:25.131Z,11.46
2022-10-19T20:19:00.258Z,11.45
2022-10-19T20:21:28.111Z,11.37
2022-10-19T20:23:55.736Z,11.32
2022-10-19T20:26:24.966Z,11.33
2022-10-19T20:28:54.430Z,11.36
2022-10-19T20:31:23.032Z,11.34
2022-10-19T20:33:50.706Z,11.31
2022-10-19T20:36:20.939Z,11.33
2022-10-19T20:38:50.291Z,11.31
2022-10-19T20:41:18.698Z,11.35
2022-10-19T20:43:46.638Z,11.37
2022-10-19T20:46:17.688Z,11.34
2022-10-19T20:48:45.557Z,11.37
2022-10-19T20:51:16.031Z,11.26
2022-10-19T20:53:46.207Z,11.23
2022-10-19T20:56:15.158Z,11.25
2022-10-19T20:58:43.837Z,11.23
2022-10-19T21:01:14.024Z,11.16
2022-10-19T21:03:46.982Z,11.18
2022-10-19T21:06:14.938Z,11.30
2022-10-19T21:08:43.557Z,11.18
2022-10-19T21:11:15.541Z,11.21
2022-10-19T21:13:43.756Z,11.09
2022-10-19T21:16:13.799Z,11.11
2022-10-19T21:18:43.663Z,11.19
2022-10-19T21:21:13.520Z,11.08
2022-10-19T21:23:41.350Z,11.17
2022-10-19T21:26:08.946Z,11.13
2022-10-19T21:28:37.193Z,11.07
2022-10-19T21:31:05.775Z,11.18
2022-10-19T21:33:33.755Z,11.19
2022-10-19T21:36:03.464Z,11.11
2022-10-19T21:38:31.780Z,10.98
2022-10-19T21:40:59.717Z,10.96
2022-10-19T21:43:28.295Z,10.95
2022-10-19T21:45:56.325Z,10.92
2022-10-19T21:48:24.706Z,10.95
2022-10-19T21:50:52.250Z,10.93
2022-10-19T21:53:23.407Z,10.85
2022-10-19T21:55:51.870Z,10.77
2022-10-19T21:58:21.520Z,10.72
2022-10-19T22:00:49.503Z,10.62
2022-10-19T22:03:19.018Z,10.58
2022-10-19T22:05:53.291Z,10.56
2022-10-19T22:08:22.155Z,10.64
2022-10-19T22:10:49.754Z,10.52
2022-10-19T22:13:17.386Z,10.48
2022-10-19T22:15:45.124Z,10.50
2022-10-19T22:18:12.689Z,10.48
2022-10-19T22:20:41.114Z,10.46
2022-10-19T22:23:09.002Z,10.52
2022-10-19T22:25:37.886Z,10.44
2022-10-19T22:28:05.661Z,10.57
2022-10-19T22:30:33.245Z,10.49
2022-10-19T22:33:00.786Z,10.52
2022-10-19T22:35:28.397Z,10.58
2022-10-19T22:37:56.013Z,10.56
2022-10-19T22:40:23.669Z,10.50
2022-10-19T22:42:52.578Z,10.33
2022-10-19T22:45:20.164Z,10.26
2022-10-19T22:47:47.668Z,10.12
2022-10-19T22:50:15.335Z,10.11
2022-10-19T22:52:42.890Z,10.20
2022-10-19T22:55:10.655Z,10.14
2022-10-19T22:57:38.188Z,10.08
2022-10-19T23:00:08.793Z,10.07
2022-10-19T23:02:36.411Z,10.06
2022-10-19T23:05:04.302Z,10.07
2022-10-19T23:07:31.813Z,10.02
2022-10-19T23:09:59.413Z,10.07
2022-10-19T23:12:26.984Z,10.02
2022-10-19T23:14:54.720Z,9.98
2022-10-19T23:17:23.739Z,9.91
2022-10-19T23:19:51.298Z,9.91
2022-10-19T23:22:18.852Z,9.82
2022-10-19T23:24:46.483Z,9.79
2022-10-19T23:27:14.496Z,9.78
2022-10-19T23:29:42.189Z,9.84
2022-10-19T23:32:09.694Z,9.75
2022-10-19T23:34:40.231Z,9.83
2022-10-19T23:37:09.765Z,9.85
2022-10-19T23:39:37.296Z,9.77
2022-10-19T23:42:04.958Z,9.76
2022-10-19T23:44:32.613Z,9.66
2022-10-19T23:47:00.139Z,9.66
2022-10-19T23:49:27.728Z,9.60
2022-10-19T23:51:56.735Z,9.66
2022-10-19T23:54:24.558Z,9.52
2022-10-19T23:56:52.120Z,9.60
2022-10-19T23:59:19.667Z,9.57
